Time;durP1;ratioP1;P1;durP2;ratioP2;P2;SDS_P1;SDS_P2;PMS_P1;PMS_P2;Temp;Humidity;BMP_temperature;BMP_pressure;BME280_temperature;BME280_humidity;BME280_pressure;Samples;Min_cycle;Max_cycle;Signal;HPM_P1;HPM_P2
2022/07/13 00:00:19;;;;;;;;;;;25.70;45.00;;;;;;5001591;28;19913;-63
2022/07/13 00:02:45;;;;;;;;;;;25.70;45.00;;;;;;4999370;28;19917;-61
2022/07/13 00:05:11;;;;;;;;;;;25.70;45.00;;;;;;4997695;28;20820;-64
2022/07/13 00:07:36;;;;;;;;;;;25.70;45.00;;;;;;4996684;28;20362;-63
2022/07/13 00:10:03;;;;;;;;;;;25.70;45.00;;;;;;4997788;28;20388;-63
2022/07/13 00:12:28;;;;;;;;;;;25.70;45.10;;;;;;4999376;28;20027;-63
2022/07/13 00:14:54;;;;;;;;;;;25.70;45.10;;;;;;4998525;28;20616;-64
2022/07/13 00:17:19;;;;;;;;;;;25.70;45.10;;;;;;5001198;28;19917;-64
2022/07/13 00:19:45;;;;;;;;;;;25.60;45.00;;;;;;4998180;28;19917;-65
2022/07/13 00:22:10;;;;;;;;;;;25.70;45.10;;;;;;4998482;28;19917;-65
2022/07/13 00:24:36;;;;;;;;;;;25.70;45.10;;;;;;4998771;28;20024;-64
2022/07/13 00:27:01;;;;;;;;;;;25.70;45.10;;;;;;4999193;28;20056;-63
2022/07/13 00:29:27;;;;;;;;;;;25.70;45.10;;;;;;4998645;28;19909;-63
2022/07/13 00:31:53;;;;;;;;;;;25.70;45.10;;;;;;4998292;28;19963;-62
2022/07/13 00:34:18;;;;;;;;;;;25.60;45.10;;;;;;4999372;28;19913;-65
2022/07/13 00:36:44;;;;;;;;;;;25.60;45.10;;;;;;4997519;28;20017;-63
2022/07/13 00:39:09;;;;;;;;;;;25.60;45.40;;;;;;4997731;28;19999;-63
2022/07/13 00:41:35;;;;;;;;;;;25.60;45.10;;;;;;4998641;28;19917;-63
2022/07/13 00:44:07;;;;;;;;;;;25.60;45.10;;;;;;4999730;28;19913;-65
2022/07/13 00:46:34;;;;;;;;;;;25.60;45.10;;;;;;5000197;28;19913;-63
2022/07/13 00:49:00;;;;;;;;;;;25.60;45.10;;;;;;4999281;28;20134;-62
2022/07/13 00:51:26;;;;;;;;;;;25.60;45.10;;;;;;4997636;28;20003;-63
2022/07/13 00:53:52;;;;;;;;;;;25.60;45.10;;;;;;4998465;28;20050;-63
2022/07/13 00:56:17;;;;;;;;;;;25.60;45.20;;;;;;4997933;28;19914;-63
2022/07/13 00:58:43;;;;;;;;;;;25.60;45.20;;;;;;4998576;28;19949;-63
2022/07/13 01:01:09;;;;;;;;;;;25.60;45.20;;;;;;5000712;28;20297;-64
2022/07/13 01:03:34;;;;;;;;;;;25.60;45.20;;;;;;4996820;28;19919;-62
2022/07/13 01:06:00;;;;;;;;;;;25.60;45.20;;;;;;4997301;28;19913;-63
2022/07/13 01:08:26;;;;;;;;;;;25.50;45.10;;;;;;4997302;28;19924;-62
2022/07/13 01:10:52;;;;;;;;;;;25.50;45.10;;;;;;4998561;28;19917;-65
2022/07/13 01:13:18;;;;;;;;;;;25.50;45.10;;;;;;4998609;28;19928;-63
2022/07/13 01:15:43;;;;;;;;;;;25.50;45.10;;;;;;4998601;28;20567;-65
2022/07/13 01:18:12;;;;;;;;;;;25.50;45.10;;;;;;4996754;28;19913;-65
2022/07/13 01:20:39;;;;;;;;;;;25.50;45.20;;;;;;4997784;28;19917;-65
2022/07/13 01:23:11;;;;;;;;;;;25.50;45.20;;;;;;4996292;28;19921;-63
2022/07/13 01:25:37;;;;;;;;;;;25.50;45.20;;;;;;4997955;28;19918;-64
2022/07/13 01:28:03;;;;;;;;;;;25.50;45.20;;;;;;4998615;28;19934;-63
2022/07/13 01:30:28;;;;;;;;;;;25.50;45.20;;;;;;4999963;28;19920;-65
2022/07/13 01:32:54;;;;;;;;;;;25.50;45.20;;;;;;4998260;28;20774;-64
2022/07/13 01:35:21;;;;;;;;;;;25.50;45.20;;;;;;4999067;28;19914;-63
2022/07/13 01:37:47;;;;;;;;;;;25.50;45.20;;;;;;4996366;28;19932;-63
2022/07/13 01:40:13;;;;;;;;;;;25.50;45.20;;;;;;4999153;28;20454;-64
2022/07/13 01:42:43;;;;;;;;;;;25.50;45.20;;;;;;4998068;28;19917;-64
2022/07/13 01:45:09;;;;;;;;;;;25.40;45.20;;;;;;4996920;28;19915;-63
2022/07/13 01:47:41;;;;;;;;;;;25.40;45.20;;;;;;4998511;28;19940;-63
2022/07/13 01:50:08;;;;;;;;;;;25.40;45.20;;;;;;4999032;28;19936;-65
2022/07/13 01:52:35;;;;;;;;;;;25.40;45.20;;;;;;4996491;28;19936;-65
2022/07/13 01:55:01;;;;;;;;;;;25.40;45.20;;;;;;4997681;28;19952;-64
2022/07/13 01:57:27;;;;;;;;;;;25.40;45.20;;;;;;4995542;28;19992;-65
2022/07/13 01:59:56;;;;;;;;;;;25.40;45.20;;;;;;4998022;28;20059;-64
2022/07/13 02:02:22;;;;;;;;;;;25.40;45.20;;;;;;4997642;28;19921;-61
2022/07/13 02:04:47;;;;;;;;;;;25.40;45.30;;;;;;4999307;28;20284;-65
2022/07/13 02:07:13;;;;;;;;;;;25.40;45.20;;;;;;4996214;28;19974;-64
2022/07/13 02:09:38;;;;;;;;;;;25.40;45.30;;;;;;4996620;28;20410;-65
2022/07/13 02:12:05;;;;;;;;;;;25.40;45.30;;;;;;4997561;28;19972;-64
2022/07/13 02:14:30;;;;;;;;;;;25.40;45.30;;;;;;4998407;28;19906;-64
2022/07/13 02:16:55;;;;;;;;;;;25.40;45.30;;;;;;4996889;28;19967;-63
2022/07/13 02:19:21;;;;;;;;;;;25.40;45.30;;;;;;4997278;28;20019;-64
2022/07/13 02:21:47;;;;;;;;;;;25.40;45.30;;;;;;4994907;28;19964;-62
2022/07/13 02:24:12;;;;;;;;;;;25.40;45.30;;;;;;4997175;28;19963;-64
2022/07/13 02:26:38;;;;;;;;;;;25.40;45.30;;;;;;4997254;28;19937;-64
2022/07/13 02:29:04;;;;;;;;;;;25.30;45.30;;;;;;4997736;28;19913;-63
2022/07/13 02:31:30;;;;;;;;;;;25.40;45.30;;;;;;4997984;28;20011;-63
2022/07/13 02:33:55;;;;;;;;;;;25.30;45.30;;;;;;4997594;28;19910;-63
2022/07/13 02:36:21;;;;;;;;;;;25.30;45.30;;;;;;5000027;28;19963;-65
2022/07/13 02:38:46;;;;;;;;;;;25.30;45.30;;;;;;5001544;28;19914;-64
2022/07/13 02:41:12;;;;;;;;;;;25.30;45.30;;;;;;5000709;28;21869;-64
2022/07/13 02:43:37;;;;;;;;;;;25.30;45.30;;;;;;5002369;28;19988;-62
2022/07/13 02:46:03;;;;;;;;;;;25.30;45.30;;;;;;5003410;28;19913;-64
2022/07/13 02:48:28;;;;;;;;;;;25.30;45.30;;;;;;5001182;28;19921;-65
2022/07/13 02:50:53;;;;;;;;;;;25.30;45.30;;;;;;5001423;28;19932;-65
2022/07/13 02:53:19;;;;;;;;;;;25.20;45.30;;;;;;5000400;28;19995;-65
2022/07/13 02:55:44;;;;;;;;;;;25.30;45.40;;;;;;5001523;28;19913;-64
2022/07/13 02:58:10;;;;;;;;;;;25.20;45.30;;;;;;5000274;28;21723;-63
2022/07/13 03:00:36;;;;;;;;;;;25.20;45.30;;;;;;5001723;28;20041;-60
2022/07/13 03:03:02;;;;;;;;;;;25.20;45.30;;;;;;4999458;28;20112;-65
2022/07/13 03:05:27;;;;;;;;;;;25.20;45.30;;;;;;5002130;28;20117;-63
2022/07/13 03:07:53;;;;;;;;;;;25.20;45.40;;;;;;4998774;28;19974;-63
2022/07/13 03:10:18;;;;;;;;;;;25.20;45.40;;;;;;5003464;28;19940;-63
2022/07/13 03:12:44;;;;;;;;;;;25.20;45.40;;;;;;5000965;28;20323;-64
2022/07/13 03:15:09;;;;;;;;;;;25.20;45.40;;;;;;5001688;28;20333;-63
2022/07/13 03:17:36;;;;;;;;;;;25.20;45.40;;;;;;5000350;28;19917;-62
2022/07/13 03:20:01;;;;;;;;;;;25.20;45.40;;;;;;4998680;28;19975;-64
2022/07/13 03:22:27;;;;;;;;;;;25.20;45.40;;;;;;5001023;28;19918;-63
2022/07/13 03:24:52;;;;;;;;;;;25.20;45.40;;;;;;5000168;28;19905;-63
2022/07/13 03:27:18;;;;;;;;;;;25.20;45.40;;;;;;5000924;28;20438;-65
2022/07/13 03:29:43;;;;;;;;;;;25.10;45.30;;;;;;5000289;28;19925;-65
2022/07/13 03:32:09;;;;;;;;;;;25.20;45.40;;;;;;5000578;28;19917;-62
2022/07/13 03:34:34;;;;;;;;;;;25.10;45.40;;;;;;4999499;28;20039;-65
2022/07/13 03:37:00;;;;;;;;;;;25.10;45.40;;;;;;4998423;28;20401;-63
2022/07/13 03:39:25;;;;;;;;;;;25.10;45.40;;;;;;4998327;28;20040;-63
2022/07/13 03:41:51;;;;;;;;;;;25.10;42.60;;;;;;5011849;28;19946;-63
2022/07/13 03:44:18;;;;;;;;;;;25.00;42.60;;;;;;5001705;28;19968;-62
2022/07/13 03:46:43;;;;;;;;;;;24.90;42.60;;;;;;5001568;28;19920;-65
2022/07/13 03:49:09;;;;;;;;;;;24.90;42.50;;;;;;4999658;28;19913;-62
2022/07/13 03:51:36;;;;;;;;;;;24.90;41.70;;;;;;4998356;28;20067;-64
2022/07/13 03:54:01;;;;;;;;;;;24.90;41.30;;;;;;4999789;28;20398;-63
2022/07/13 03:56:27;;;;;;;;;;;24.80;40.90;;;;;;5000945;28;19905;-63
2022/07/13 03:58:52;;;;;;;;;;;24.80;40.20;;;;;;4998485;28;20300;-63
2022/07/13 04:01:19;;;;;;;;;;;24.70;40.40;;;;;;5007443;28;19921;-63
2022/07/13 04:03:44;;;;;;;;;;;24.70;40.50;;;;;;4999376;28;19914;-64
2022/07/13 04:06:10;;;;;;;;;;;24.60;40.50;;;;;;4999836;28;20861;-63
2022/07/13 04:08:35;;;;;;;;;;;24.50;40.50;;;;;;4997535;28;19954;-61
2022/07/13 04:11:02;;;;;;;;;;;24.50;40.80;;;;;;4999624;28;19924;-65
2022/07/13 04:13:27;;;;;;;;;;;24.50;41.30;;;;;;5001400;28;20012;-62
2022/07/13 04:15:52;;;;;;;;;;;24.50;41.50;;;;;;4999789;28;20708;-65
2022/07/13 04:18:18;;;;;;;;;;;24.50;41.70;;;;;;4999311;28;19917;-61
2022/07/13 04:20:44;;;;;;;;;;;24.50;41.60;;;;;;4999607;28;19924;-62
2022/07/13 04:23:09;;;;;;;;;;;24.40;41.70;;;;;;4998955;28;20435;-65
2022/07/13 04:25:35;;;;;;;;;;;24.40;41.70;;;;;;4999369;28;19910;-60
2022/07/13 04:28:00;;;;;;;;;;;24.40;41.30;;;;;;4998642;28;20000;-60
2022/07/13 04:30:27;;;;;;;;;;;24.40;41.30;;;;;;4999433;28;20070;-64
2022/07/13 04:32:52;;;;;;;;;;;24.30;41.40;;;;;;4998870;28;19956;-63
2022/07/13 04:35:18;;;;;;;;;;;24.30;41.30;;;;;;4999035;28;20039;-61
2022/07/13 04:37:43;;;;;;;;;;;24.30;41.40;;;;;;4998118;28;19924;-62
2022/07/13 04:40:09;;;;;;;;;;;24.20;41.60;;;;;;4999248;28;19949;-64
2022/07/13 04:42:34;;;;;;;;;;;24.20;41.60;;;;;;4998438;28;19917;-61
2022/07/13 04:45:00;;;;;;;;;;;24.10;41.70;;;;;;5001223;28;19920;-60
2022/07/13 04:47:26;;;;;;;;;;;24.10;41.80;;;;;;4999631;28;19914;-62
2022/07/13 04:49:52;;;;;;;;;;;24.10;42.00;;;;;;4999144;28;20616;-61
2022/07/13 04:52:17;;;;;;;;;;;24.10;42.10;;;;;;5000010;28;19913;-62
2022/07/13 04:54:43;;;;;;;;;;;24.10;42.00;;;;;;4998520;28;19913;-61
2022/07/13 04:57:09;;;;;;;;;;;24.10;42.20;;;;;;4999306;28;19910;-61
2022/07/13 04:59:34;;;;;;;;;;;24.10;42.20;;;;;;4999274;28;19909;-62
2022/07/13 05:02:00;;;;;;;;;;;24.00;42.50;;;;;;5001026;28;19921;-61
2022/07/13 05:04:25;;;;;;;;;;;24.00;42.50;;;;;;4999101;28;20401;-62
2022/07/13 05:06:51;;;;;;;;;;;24.00;42.60;;;;;;4999092;28;19916;-61
2022/07/13 05:09:16;;;;;;;;;;;23.90;42.70;;;;;;4998213;28;19917;-62
2022/07/13 05:11:42;;;;;;;;;;;23.90;42.80;;;;;;4997756;28;19913;-61
2022/07/13 05:14:08;;;;;;;;;;;23.90;43.00;;;;;;5012700;28;19920;-62
2022/07/13 05:16:33;;;;;;;;;;;23.80;43.40;;;;;;4999764;28;20341;-61
2022/07/13 05:18:59;;;;;;;;;;;23.70;43.50;;;;;;4996858;28;19909;-62
2022/07/13 05:21:24;;;;;;;;;;;23.70;43.70;;;;;;4997064;28;19924;-62
2022/07/13 05:23:49;;;;;;;;;;;23.70;43.80;;;;;;4997255;28;19909;-63
2022/07/13 05:26:15;;;;;;;;;;;23.60;44.30;;;;;;5000186;28;19966;-62
2022/07/13 05:28:42;;;;;;;;;;;23.50;44.90;;;;;;4995148;28;19913;-58
2022/07/13 05:31:08;;;;;;;;;;;23.50;45.20;;;;;;4995869;28;19917;-62
2022/07/13 05:33:33;;;;;;;;;;;23.60;44.90;;;;;;4995182;28;19941;-61
2022/07/13 05:36:02;;;;;;;;;;;23.70;44.80;;;;;;5015412;28;19942;-61
2022/07/13 05:38:28;;;;;;;;;;;23.70;44.50;;;;;;5013315;28;19944;-62
2022/07/13 05:40:53;;;;;;;;;;;23.80;44.40;;;;;;5013836;28;20459;-63
2022/07/13 05:43:19;;;;;;;;;;;23.90;44.30;;;;;;5017226;28;20319;-62
2022/07/13 05:45:44;;;;;;;;;;;23.90;44.20;;;;;;5013180;28;19917;-62
2022/07/13 05:48:10;;;;;;;;;;;24.00;44.20;;;;;;4997060;28;19914;-61
2022/07/13 05:50:35;;;;;;;;;;;24.00;44.10;;;;;;4997323;28;21632;-62
2022/07/13 05:53:01;;;;;;;;;;;24.00;44.10;;;;;;4996847;28;19971;-62
2022/07/13 05:55:26;;;;;;;;;;;24.10;44.10;;;;;;4998299;28;19913;-61
2022/07/13 05:57:52;;;;;;;;;;;24.10;44.00;;;;;;4998403;28;19917;-62
2022/07/13 06:00:17;;;;;;;;;;;24.10;44.00;;;;;;4996298;28;19909;-63
2022/07/13 06:02:43;;;;;;;;;;;24.20;44.00;;;;;;4997425;28;20033;-62
2022/07/13 06:05:09;;;;;;;;;;;24.20;44.10;;;;;;4996730;28;20262;-63
2022/07/13 06:07:34;;;;;;;;;;;24.20;44.20;;;;;;4995772;28;20495;-62
2022/07/13 06:10:01;;;;;;;;;;;24.20;44.10;;;;;;4995612;28;19913;-62
2022/07/13 06:12:27;;;;;;;;;;;24.30;44.10;;;;;;4996744;28;20060;-59
2022/07/13 06:14:55;;;;;;;;;;;24.30;44.40;;;;;;4996903;28;20352;-62
2022/07/13 06:17:21;;;;;;;;;;;24.30;44.30;;;;;;4997178;28;19913;-62
2022/07/13 06:19:46;;;;;;;;;;;24.40;44.30;;;;;;4959088;28;1087371;-61
2022/07/13 06:22:12;;;;;;;;;;;24.40;44.20;;;;;;4996906;28;19949;-62
2022/07/13 06:24:37;;;;;;;;;;;24.50;44.20;;;;;;4997687;28;20243;-60
2022/07/13 06:27:03;;;;;;;;;;;24.50;44.10;;;;;;4998121;28;20366;-61
2022/07/13 06:29:28;;;;;;;;;;;24.50;44.00;;;;;;4996065;28;20329;-61
2022/07/13 06:31:54;;;;;;;;;;;24.50;44.00;;;;;;4996265;28;19940;-62
2022/07/13 06:34:19;;;;;;;;;;;24.60;44.20;;;;;;4996483;28;20012;-63
2022/07/13 06:36:45;;;;;;;;;;;24.60;44.00;;;;;;4996485;28;21145;-60
2022/07/13 06:39:10;;;;;;;;;;;24.60;43.90;;;;;;4995794;28;19921;-62
2022/07/13 06:41:36;;;;;;;;;;;24.70;43.90;;;;;;4997398;28;21006;-61
2022/07/13 06:44:01;;;;;;;;;;;24.70;43.90;;;;;;4997385;28;19924;-62
2022/07/13 06:46:27;;;;;;;;;;;24.70;43.90;;;;;;4996986;28;19913;-63
2022/07/13 06:48:52;;;;;;;;;;;24.80;44.00;;;;;;4995749;28;19959;-61
2022/07/13 06:51:18;;;;;;;;;;;24.80;44.10;;;;;;4996589;28;20580;-63
2022/07/13 06:53:43;;;;;;;;;;;24.80;44.00;;;;;;4998040;28;19920;-63
2022/07/13 06:56:09;;;;;;;;;;;24.80;43.90;;;;;;4997360;28;19913;-62
2022/07/13 06:58:34;;;;;;;;;;;24.90;43.90;;;;;;4999468;28;20516;-61
2022/07/13 07:01:00;;;;;;;;;;;24.90;43.90;;;;;;4995682;28;19949;-62
2022/07/13 07:03:25;;;;;;;;;;;24.90;43.90;;;;;;4997923;28;19971;-63
2022/07/13 07:05:51;;;;;;;;;;;24.90;43.80;;;;;;4997100;28;20323;-61
2022/07/13 07:08:17;;;;;;;;;;;25.00;43.90;;;;;;4996708;28;19964;-61
2022/07/13 07:10:43;;;;;;;;;;;25.00;43.90;;;;;;4998454;28;19945;-61
2022/07/13 07:13:08;;;;;;;;;;;25.00;44.10;;;;;;4997650;28;19909;-61
2022/07/13 07:15:34;;;;;;;;;;;25.00;44.00;;;;;;4998098;28;20361;-61
2022/07/13 07:17:59;;;;;;;;;;;25.00;44.00;;;;;;5012792;28;19913;-63
2022/07/13 07:20:25;;;;;;;;;;;25.10;44.00;;;;;;4997741;28;19918;-59
2022/07/13 07:22:51;;;;;;;;;;;25.10;44.00;;;;;;4998403;28;19918;-60
2022/07/13 07:25:16;;;;;;;;;;;25.10;43.90;;;;;;4999462;28;19909;-61
2022/07/13 07:27:42;;;;;;;;;;;25.10;43.80;;;;;;5000853;28;19917;-62
2022/07/13 07:30:08;;;;;;;;;;;25.10;43.80;;;;;;4997029;28;20505;-61
2022/07/13 07:32:33;;;;;;;;;;;25.20;43.90;;;;;;5000590;28;19936;-63
2022/07/13 07:34:59;;;;;;;;;;;25.20;43.90;;;;;;4997911;28;20056;-61
2022/07/13 07:37:24;;;;;;;;;;;25.20;43.90;;;;;;4999925;28;19958;-62
2022/07/13 07:39:50;;;;;;;;;;;25.30;43.90;;;;;;4998424;28;19996;-61
2022/07/13 07:42:16;;;;;;;;;;;25.30;43.90;;;;;;4998801;28;19914;-61
2022/07/13 07:44:42;;;;;;;;;;;25.30;43.90;;;;;;5000143;28;20039;-61
2022/07/13 07:47:08;;;;;;;;;;;25.30;43.90;;;;;;5000001;28;19953;-61
2022/07/13 07:49:34;;;;;;;;;;;25.30;43.80;;;;;;5000032;28;19992;-60
2022/07/13 07:52:00;;;;;;;;;;;25.40;43.90;;;;;;4999636;28;20358;-61
2022/07/13 07:54:25;;;;;;;;;;;25.30;43.80;;;;;;4998829;28;19909;-62
2022/07/13 07:56:51;;;;;;;;;;;25.40;43.80;;;;;;4999705;28;19988;-60
2022/07/13 07:59:16;;;;;;;;;;;25.40;43.80;;;;;;4999971;28;19989;-61
2022/07/13 08:01:42;;;;;;;;;;;25.40;43.70;;;;;;4999740;28;19929;-62
2022/07/13 08:04:08;;;;;;;;;;;25.40;43.70;;;;;;4999871;28;19925;-63
2022/07/13 08:06:34;;;;;;;;;;;25.50;43.80;;;;;;4997756;28;20000;-62
2022/07/13 08:08:59;;;;;;;;;;;25.50;44.00;;;;;;5001422;28;20036;-62
2022/07/13 08:11:24;;;;;;;;;;;25.50;43.80;;;;;;4998792;28;20334;-63
2022/07/13 08:13:51;;;;;;;;;;;25.50;44.30;;;;;;4998667;28;19921;-62
2022/07/13 08:16:17;;;;;;;;;;;25.50;43.70;;;;;;4999835;28;20004;-62
2022/07/13 08:18:43;;;;;;;;;;;25.50;43.70;;;;;;5001056;28;20062;-64
2022/07/13 08:21:08;;;;;;;;;;;25.60;43.80;;;;;;4998655;28;19914;-62
2022/07/13 08:23:52;;;;;;;;;;;25.60;43.70;;;;;;4997515;28;19921;-62
2022/07/13 08:26:18;;;;;;;;;;;25.60;43.80;;;;;;5001524;28;19973;-62
2022/07/13 08:28:44;;;;;;;;;;;25.60;43.70;;;;;;5000058;28;20265;-63
2022/07/13 08:31:09;;;;;;;;;;;25.60;43.70;;;;;;4998381;28;19917;-61
2022/07/13 08:39:03;;;;;;;;;;;25.70;43.70;;;;;;4997106;28;19920;-64
2022/07/13 08:41:29;;;;;;;;;;;25.70;43.70;;;;;;4998333;28;19920;-61
2022/07/13 08:43:54;;;;;;;;;;;25.70;43.70;;;;;;4999779;28;20326;-62
2022/07/13 08:46:21;;;;;;;;;;;25.70;43.60;;;;;;4999869;28;19909;-61
2022/07/13 08:48:47;;;;;;;;;;;25.70;44.20;;;;;;4996992;28;19920;-63
2022/07/13 08:51:16;;;;;;;;;;;25.70;43.60;;;;;;4997394;28;19952;-64
2022/07/13 08:53:41;;;;;;;;;;;25.80;43.70;;;;;;4996873;28;20015;-64
2022/07/13 08:56:07;;;;;;;;;;;25.70;43.60;;;;;;4996641;28;20409;-60
2022/07/13 08:58:35;;;;;;;;;;;25.70;43.60;;;;;;4996809;28;19967;-64
2022/07/13 09:01:01;;;;;;;;;;;25.80;43.60;;;;;;4999472;28;20284;-62
2022/07/13 09:03:26;;;;;;;;;;;25.80;43.60;;;;;;4998746;28;19918;-62
2022/07/13 09:05:52;;;;;;;;;;;25.80;43.60;;;;;;4998399;28;20008;-63
2022/07/13 09:08:18;;;;;;;;;;;25.80;43.60;;;;;;4998761;28;20522;-62
2022/07/13 09:10:52;;;;;;;;;;;25.80;43.60;;;;;;4998358;28;19916;-61
2022/07/13 09:13:34;;;;;;;;;;;25.80;43.60;;;;;;4997497;28;20693;-61
2022/07/13 09:16:20;;;;;;;;;;;25.80;43.60;;;;;;4997998;28;20254;-63
2022/07/13 09:18:46;;;;;;;;;;;25.90;43.60;;;;;;4995606;28;19906;-62
2022/07/13 09:21:12;;;;;;;;;;;25.90;43.60;;;;;;4999134;28;20650;-63
2022/07/13 09:23:38;;;;;;;;;;;25.90;43.50;;;;;;4996966;28;20096;-62
2022/07/13 09:26:03;;;;;;;;;;;25.90;43.60;;;;;;4997419;28;19940;-64
2022/07/13 09:28:39;;;;;;;;;;;25.90;43.60;;;;;;4996439;28;19913;-62
2022/07/13 09:31:05;;;;;;;;;;;26.00;43.70;;;;;;4996620;28;19936;-63
2022/07/13 09:33:32;;;;;;;;;;;25.90;43.60;;;;;;4996205;28;19909;-61
2022/07/13 09:35:58;;;;;;;;;;;25.90;43.60;;;;;;4999761;28;20434;-62
2022/07/13 09:38:35;;;;;;;;;;;26.00;43.70;;;;;;4994586;28;19913;-62
2022/07/13 09:41:21;;;;;;;;;;;26.00;43.70;;;;;;4998572;28;19913;-65
2022/07/13 09:46:59;;;;;;;;;;;26.00;43.70;;;;;;4998513;28;20016;-62
2022/07/13 09:49:29;;;;;;;;;;;26.00;43.60;;;;;;4996780;28;19914;-62
2022/07/13 09:51:57;;;;;;;;;;;26.00;43.70;;;;;;4996022;28;20338;-61
2022/07/13 09:54:23;;;;;;;;;;;26.00;43.80;;;;;;4997841;28;19918;-63
2022/07/13 09:56:49;;;;;;;;;;;26.00;43.80;;;;;;4999971;28;19912;-61
2022/07/13 09:59:16;;;;;;;;;;;26.00;43.80;;;;;;4997362;28;21212;-64
2022/07/13 10:01:44;;;;;;;;;;;26.00;43.90;;;;;;4995798;28;19925;-64
2022/07/13 10:04:11;;;;;;;;;;;26.10;44.00;;;;;;4995750;28;20265;-65
2022/07/13 10:06:37;;;;;;;;;;;26.10;44.00;;;;;;5008168;28;20039;-62
2022/07/13 10:09:03;;;;;;;;;;;26.10;43.90;;;;;;4998983;28;19966;-63
2022/07/13 10:11:29;;;;;;;;;;;26.10;43.90;;;;;;4996060;28;20463;-63
2022/07/13 10:13:55;;;;;;;;;;;26.10;43.90;;;;;;4996744;28;19910;-62
2022/07/13 10:16:20;;;;;;;;;;;26.10;43.90;;;;;;4997658;28;19913;-62
2022/07/13 10:18:47;;;;;;;;;;;26.10;44.00;;;;;;4995740;28;19916;-63
2022/07/13 10:21:18;;;;;;;;;;;26.10;43.90;;;;;;4995745;28;19928;-64
2022/07/13 10:23:44;;;;;;;;;;;26.10;43.80;;;;;;4996626;28;19917;-65
2022/07/13 10:26:24;;;;;;;;;;;26.20;43.90;;;;;;4997660;28;19921;-62
2022/07/13 10:29:09;;;;;;;;;;;26.20;43.80;;;;;;4997300;28;20357;-63
2022/07/13 10:31:38;;;;;;;;;;;26.20;43.80;;;;;;4997533;28;19924;-65
2022/07/13 10:34:05;;;;;;;;;;;26.20;43.80;;;;;;4994318;28;19939;-64
2022/07/13 10:36:49;;;;;;;;;;;26.20;43.80;;;;;;4993828;28;19912;-62
2022/07/13 10:39:15;;;;;;;;;;;26.20;43.80;;;;;;4996985;28;19953;-62
2022/07/13 10:42:00;;;;;;;;;;;26.20;43.80;;;;;;4996521;28;20008;-63
2022/07/13 10:44:32;;;;;;;;;;;26.20;43.80;;;;;;4997271;28;19913;-64
2022/07/13 10:46:58;;;;;;;;;;;26.20;43.80;;;;;;4992916;28;20354;-63
2022/07/13 10:49:47;;;;;;;;;;;26.20;43.80;;;;;;4995552;28;19916;-63
2022/07/13 10:52:19;;;;;;;;;;;26.20;43.80;;;;;;4985954;28;19976;-62
2022/07/13 10:55:13;;;;;;;;;;;26.20;43.80;;;;;;4993790;28;20396;-64
2022/07/13 10:57:42;;;;;;;;;;;26.20;43.90;;;;;;4996476;28;19949;-63
2022/07/13 11:00:18;;;;;;;;;;;26.20;43.80;;;;;;4997304;28;21353;-62
2022/07/13 11:02:47;;;;;;;;;;;26.20;43.80;;;;;;4996533;28;19929;-63
2022/07/13 11:05:14;;;;;;;;;;;26.20;43.80;;;;;;4996758;28;19917;-64
2022/07/13 11:07:44;;;;;;;;;;;26.30;43.90;;;;;;4995006;28;20018;-65
2022/07/13 11:10:16;;;;;;;;;;;26.30;43.90;;;;;;4996297;28;19909;-67
2022/07/13 11:12:55;;;;;;;;;;;26.30;43.90;;;;;;4998335;28;19956;-62
2022/07/13 11:15:21;;;;;;;;;;;26.30;43.90;;;;;;4996508;28;19948;-62
2022/07/13 11:18:16;;;;;;;;;;;26.30;43.90;;;;;;4994980;28;20008;-64
2022/07/13 11:20:53;;;;;;;;;;;26.30;43.80;;;;;;4996399;28;19933;-64
2022/07/13 11:26:06;;;;;;;;;;;26.30;43.90;;;;;;4997051;28;20014;-63
2022/07/13 11:28:43;;;;;;;;;;;26.30;43.90;;;;;;4996066;28;19916;-63
2022/07/13 11:31:12;;;;;;;;;;;26.40;44.30;;;;;;4996956;28;19925;-64
2022/07/13 11:33:38;;;;;;;;;;;26.40;44.40;;;;;;4994291;28;19913;-62
2022/07/13 11:36:04;;;;;;;;;;;26.40;44.40;;;;;;4997245;28;19983;-65
2022/07/13 11:38:36;;;;;;;;;;;26.40;44.50;;;;;;4991730;28;19917;-62
2022/07/13 11:41:02;;;;;;;;;;;26.50;44.60;;;;;;5011040;28;20005;-65
2022/07/13 11:43:27;;;;;;;;;;;26.50;44.60;;;;;;4995229;28;19997;-66
2022/07/13 11:45:53;;;;;;;;;;;26.50;44.60;;;;;;4996932;28;20338;-64
2022/07/13 11:48:18;;;;;;;;;;;26.50;44.60;;;;;;4996383;28;20131;-66
2022/07/13 11:50:45;;;;;;;;;;;26.50;44.60;;;;;;4994564;28;20291;-67
2022/07/13 11:53:21;;;;;;;;;;;26.60;44.70;;;;;;4995126;28;20328;-64
2022/07/13 11:55:47;;;;;;;;;;;26.60;44.80;;;;;;4996762;28;19953;-65
2022/07/13 11:58:23;;;;;;;;;;;26.60;44.70;;;;;;4997418;28;20227;-64
2022/07/13 12:00:48;;;;;;;;;;;26.60;44.70;;;;;;4997329;28;19917;-64
2022/07/13 12:03:13;;;;;;;;;;;26.60;44.80;;;;;;4997939;28;20530;-64
2022/07/13 12:05:42;;;;;;;;;;;26.60;44.90;;;;;;4998785;28;20015;-63
2022/07/13 12:08:07;;;;;;;;;;;26.60;44.70;;;;;;4997076;28;20063;-64
2022/07/13 12:10:36;;;;;;;;;;;26.70;44.80;;;;;;4995665;28;19913;-66
2022/07/13 12:13:01;;;;;;;;;;;26.70;44.70;;;;;;4999244;28;20380;-65
2022/07/13 12:15:27;;;;;;;;;;;26.70;44.60;;;;;;4999743;28;19913;-63
2022/07/13 12:17:53;;;;;;;;;;;26.70;44.70;;;;;;4996786;28;19921;-62
2022/07/13 12:20:20;;;;;;;;;;;26.70;45.20;;;;;;4997784;28;19917;-64
2022/07/13 12:22:53;;;;;;;;;;;26.80;45.20;;;;;;4996741;28;20008;-64
2022/07/13 12:25:37;;;;;;;;;;;26.80;45.30;;;;;;4998836;28;20000;-66
2022/07/13 12:28:04;;;;;;;;;;;26.80;45.10;;;;;;4997215;28;19925;-64
2022/07/13 12:30:33;;;;;;;;;;;26.80;45.10;;;;;;4999028;28;20397;-64
2022/07/13 12:33:11;;;;;;;;;;;26.80;45.00;;;;;;4996790;28;19909;-64
2022/07/13 12:35:37;;;;;;;;;;;26.80;45.00;;;;;;4996623;28;19920;-62
2022/07/13 12:38:05;;;;;;;;;;;26.80;45.10;;;;;;4994237;28;20008;-64
2022/07/13 12:40:41;;;;;;;;;;;26.80;45.30;;;;;;4995707;28;20366;-64
2022/07/13 12:43:16;;;;;;;;;;;26.90;45.30;;;;;;4996720;28;20019;-60
2022/07/13 12:45:43;;;;;;;;;;;26.90;45.10;;;;;;4997442;28;19917;-62
2022/07/13 12:48:12;;;;;;;;;;;26.90;45.10;;;;;;4997161;28;20660;-63
2022/07/13 12:50:38;;;;;;;;;;;26.90;45.20;;;;;;4999327;28;19913;-63
2022/07/13 12:53:03;;;;;;;;;;;27.00;45.20;;;;;;4996566;28;19913;-64
2022/07/13 12:55:29;;;;;;;;;;;27.00;45.20;;;;;;4997700;28;19924;-62
2022/07/13 12:57:54;;;;;;;;;;;27.00;45.20;;;;;;4998173;28;19913;-65
2022/07/13 13:00:26;;;;;;;;;;;27.00;45.10;;;;;;4996636;28;19913;-65
2022/07/13 13:02:52;;;;;;;;;;;27.00;45.00;;;;;;4996328;28;19920;-62
2022/07/13 13:05:17;;;;;;;;;;;27.00;45.00;;;;;;4997511;28;20354;-61
2022/07/13 13:07:43;;;;;;;;;;;27.00;45.00;;;;;;4993739;28;20035;-64
2022/07/13 13:10:09;;;;;;;;;;;27.10;45.10;;;;;;4998052;28;19959;-64
2022/07/13 13:12:35;;;;;;;;;;;27.10;45.00;;;;;;4997230;28;19905;-64
2022/07/13 13:15:02;;;;;;;;;;;27.10;44.90;;;;;;4997100;28;19919;-63
2022/07/13 13:17:27;;;;;;;;;;;27.10;44.80;;;;;;4996525;28;19913;-63
2022/07/13 13:19:53;;;;;;;;;;;27.10;44.80;;;;;;4995975;28;19913;-65
2022/07/13 13:22:19;;;;;;;;;;;27.10;44.80;;;;;;4996670;28;19924;-62
2022/07/13 13:24:45;;;;;;;;;;;27.10;44.80;;;;;;4996337;28;21068;-62
2022/07/13 13:27:12;;;;;;;;;;;27.20;44.90;;;;;;4996038;28;20001;-62
2022/07/13 13:32:21;;;;;;;;;;;27.20;44.80;;;;;;4996763;28;20736;-63
2022/07/13 13:34:47;;;;;;;;;;;27.20;44.90;;;;;;4994671;28;19909;-62
2022/07/13 13:37:13;;;;;;;;;;;27.20;44.80;;;;;;4994348;28;19917;-65
2022/07/13 13:39:38;;;;;;;;;;;27.20;44.80;;;;;;4997133;28;19910;-64
2022/07/13 13:42:04;;;;;;;;;;;27.20;44.80;;;;;;4996424;28;19912;-64
2022/07/13 13:44:29;;;;;;;;;;;27.30;44.90;;;;;;4998991;28;19909;-65
2022/07/13 13:46:55;;;;;;;;;;;27.30;44.80;;;;;;4994984;28;19916;-61
2022/07/13 13:49:21;;;;;;;;;;;27.30;44.90;;;;;;4994032;28;19917;-64
2022/07/13 13:51:46;;;;;;;;;;;27.30;44.80;;;;;;4990610;28;19990;-65
2022/07/13 13:54:13;;;;;;;;;;;27.30;45.40;;;;;;4995441;28;19917;-62
2022/07/13 13:56:39;;;;;;;;;;;27.30;44.80;;;;;;4992995;28;20086;-64
2022/07/13 13:59:05;;;;;;;;;;;27.30;44.90;;;;;;4995643;28;20082;-65
2022/07/13 14:01:30;;;;;;;;;;;27.30;44.90;;;;;;4993821;28;19921;-65
2022/07/13 14:03:56;;;;;;;;;;;27.30;45.00;;;;;;4994872;28;19971;-64
2022/07/13 14:06:22;;;;;;;;;;;27.30;44.90;;;;;;4993945;28;19917;-63
2022/07/13 14:08:47;;;;;;;;;;;27.40;44.90;;;;;;4994828;28;20020;-64
2022/07/13 14:11:13;;;;;;;;;;;27.40;44.90;;;;;;4995840;28;19917;-66
2022/07/13 14:13:42;;;;;;;;;;;27.40;44.90;;;;;;4995195;28;19909;-65
2022/07/13 14:16:07;;;;;;;;;;;27.40;44.90;;;;;;4995771;28;20972;-64
2022/07/13 14:18:33;;;;;;;;;;;27.30;44.80;;;;;;4995174;28;20012;-62
2022/07/13 14:20:59;;;;;;;;;;;27.30;44.70;;;;;;4994478;28;19952;-64
2022/07/13 14:23:25;;;;;;;;;;;27.40;44.80;;;;;;4993819;28;19917;-63
2022/07/13 14:25:50;;;;;;;;;;;27.30;44.70;;;;;;4996589;28;20266;-64
2022/07/13 14:28:16;;;;;;;;;;;27.30;44.70;;;;;;4994777;28;20527;-62